sensor_id;sensor_type;location;lat;lon;timestamp;P1;durP1;ratioP1;P2;durP2;ratioP2
29370;SDS011;16357;52.188;7.838;2022-12-07T00:01:28;11.07;;;8.75;;
29370;SDS011;16357;52.188;7.838;2022-12-07T00:03:59;11.82;;;8.50;;
29370;SDS011;16357;52.188;7.838;2022-12-07T00:06:35;11.10;;;7.97;;
29370;SDS011;16357;52.188;7.838;2022-12-07T00:09:04;7.68;;;6.85;;
29370;SDS011;16357;52.188;7.838;2022-12-07T00:11:31;9.95;;;7.65;;
29370;SDS011;16357;52.188;7.838;2022-12-07T00:14:00;11.05;;;6.95;;
29370;SDS011;16357;52.188;7.838;2022-12-07T00:16:30;8.02;;;6.82;;
29370;SDS011;16357;52.188;7.838;2022-12-07T00:18:58;11.35;;;7.32;;
29370;SDS011;16357;52.188;7.838;2022-12-07T00:21:25;10.20;;;7.85;;
29370;SDS011;16357;52.188;7.838;2022-12-07T00:23:54;8.88;;;7.63;;
29370;SDS011;16357;52.188;7.838;2022-12-07T00:26:32;9.02;;;7.55;;
29370;SDS011;16357;52.188;7.838;2022-12-07T00:29:04;12.02;;;7.03;;
29370;SDS011;16357;52.188;7.838;2022-12-07T00:31:33;11.15;;;7.68;;
29370;SDS011;16357;52.188;7.838;2022-12-07T00:34:05;8.68;;;6.90;;
29370;SDS011;16357;52.188;7.838;2022-12-07T00:36:32;7.60;;;6.78;;
29370;SDS011;16357;52.188;7.838;2022-12-07T00:39:00;9.32;;;7.00;;
29370;SDS011;16357;52.188;7.838;2022-12-07T00:41:28;8.65;;;7.13;;
29370;SDS011;16357;52.188;7.838;2022-12-07T00:43:55;11.35;;;7.20;;
29370;SDS011;16357;52.188;7.838;2022-12-07T00:46:22;9.40;;;6.70;;
29370;SDS011;16357;52.188;7.838;2022-12-07T00:48:50;8.20;;;6.25;;
29370;SDS011;16357;52.188;7.838;2022-12-07T00:51:18;7.95;;;6.45;;
29370;SDS011;16357;52.188;7.838;2022-12-07T00:53:45;9.50;;;6.35;;
29370;SDS011;16357;52.188;7.838;2022-12-07T00:56:17;9.23;;;6.47;;
29370;SDS011;16357;52.188;7.838;2022-12-07T00:58:49;9.65;;;6.18;;
29370;SDS011;16357;52.188;7.838;2022-12-07T01:01:19;7.38;;;6.18;;
29370;SDS011;16357;52.188;7.838;2022-12-07T01:03:46;7.28;;;5.50;;
29370;SDS011;16357;52.188;7.838;2022-12-07T01:06:13;6.75;;;5.55;;
29370;SDS011;16357;52.188;7.838;2022-12-07T01:08:42;7.10;;;5.65;;
29370;SDS011;16357;52.188;7.838;2022-12-07T01:11:09;6.88;;;5.63;;
29370;SDS011;16357;52.188;7.838;2022-12-07T01:13:40;7.75;;;5.53;;
29370;SDS011;16357;52.188;7.838;2022-12-07T01:16:07;8.30;;;5.28;;
29370;SDS011;16357;52.188;7.838;2022-12-07T01:18:36;6.05;;;5.35;;
29370;SDS011;16357;52.188;7.838;2022-12-07T01:21:04;7.28;;;5.55;;
29370;SDS011;16357;52.188;7.838;2022-12-07T01:23:35;7.22;;;5.13;;
29370;SDS011;16357;52.188;7.838;2022-12-07T01:26:03;6.25;;;5.13;;
29370;SDS011;16357;52.188;7.838;2022-12-07T01:28:32;8.93;;;4.78;;
29370;SDS011;16357;52.188;7.838;2022-12-07T01:31:00;6.28;;;4.75;;
29370;SDS011;16357;52.188;7.838;2022-12-07T01:33:30;5.57;;;4.68;;
29370;SDS011;16357;52.188;7.838;2022-12-07T01:38:46;5.45;;;4.70;;
29370;SDS011;16357;52.188;7.838;2022-12-07T01:41:14;6.78;;;4.95;;
29370;SDS011;16357;52.188;7.838;2022-12-07T01:44:07;6.47;;;4.88;;
29370;SDS011;16357;52.188;7.838;2022-12-07T01:46:36;6.43;;;4.72;;
29370;SDS011;16357;52.188;7.838;2022-12-07T01:49:04;7.03;;;4.95;;
29370;SDS011;16357;52.188;7.838;2022-12-07T01:51:34;9.25;;;5.40;;
29370;SDS011;16357;52.188;7.838;2022-12-07T01:54:01;6.82;;;5.40;;
29370;SDS011;16357;52.188;7.838;2022-12-07T01:56:28;6.45;;;5.25;;
29370;SDS011;16357;52.188;7.838;2022-12-07T01:58:55;8.27;;;5.07;;
29370;SDS011;16357;52.188;7.838;2022-12-07T02:01:22;7.68;;;5.00;;
29370;SDS011;16357;52.188;7.838;2022-12-07T02:03:49;5.65;;;4.85;;
29370;SDS011;16357;52.188;7.838;2022-12-07T02:06:16;6.50;;;4.63;;
29370;SDS011;16357;52.188;7.838;2022-12-07T02:08:46;5.10;;;4.07;;
29370;SDS011;16357;52.188;7.838;2022-12-07T02:11:13;6.80;;;5.05;;
29370;SDS011;16357;52.188;7.838;2022-12-07T02:13:40;8.63;;;4.47;;
29370;SDS011;16357;52.188;7.838;2022-12-07T02:18:58;6.80;;;4.15;;
29370;SDS011;16357;52.188;7.838;2022-12-07T02:30:04;6.88;;;4.32;;
29370;SDS011;16357;52.188;7.838;2022-12-07T02:32:38;5.88;;;3.90;;
29370;SDS011;16357;52.188;7.838;2022-12-07T02:35:36;6.50;;;3.88;;
29370;SDS011;16357;52.188;7.838;2022-12-07T02:38:15;5.00;;;3.70;;
29370;SDS011;16357;52.188;7.838;2022-12-07T02:40:54;6.40;;;3.45;;
29370;SDS011;16357;52.188;7.838;2022-12-07T02:43:30;6.38;;;4.05;;
29370;SDS011;16357;52.188;7.838;2022-12-07T02:46:03;4.07;;;3.30;;
29370;SDS011;16357;52.188;7.838;2022-12-07T02:48:36;5.25;;;3.60;;
29370;SDS011;16357;52.188;7.838;2022-12-07T02:51:05;5.65;;;3.88;;
29370;SDS011;16357;52.188;7.838;2022-12-07T02:53:35;5.88;;;4.38;;
29370;SDS011;16357;52.188;7.838;2022-12-07T02:56:10;6.40;;;4.72;;
29370;SDS011;16357;52.188;7.838;2022-12-07T02:58:42;8.73;;;4.00;;
29370;SDS011;16357;52.188;7.838;2022-12-07T03:04:02;4.80;;;3.72;;
29370;SDS011;16357;52.188;7.838;2022-12-07T03:06:42;7.45;;;4.10;;
29370;SDS011;16357;52.188;7.838;2022-12-07T03:09:27;6.60;;;3.90;;
29370;SDS011;16357;52.188;7.838;2022-12-07T03:12:14;7.20;;;4.38;;
29370;SDS011;16357;52.188;7.838;2022-12-07T03:14:49;4.93;;;3.75;;
29370;SDS011;16357;52.188;7.838;2022-12-07T03:17:24;5.82;;;3.92;;
29370;SDS011;16357;52.188;7.838;2022-12-07T03:19:56;7.63;;;4.28;;
29370;SDS011;16357;52.188;7.838;2022-12-07T03:22:29;7.20;;;3.85;;
29370;SDS011;16357;52.188;7.838;2022-12-07T03:25:00;8.05;;;4.07;;
29370;SDS011;16357;52.188;7.838;2022-12-07T03:27:36;5.60;;;3.78;;
29370;SDS011;16357;52.188;7.838;2022-12-07T03:30:12;8.30;;;3.35;;
29370;SDS011;16357;52.188;7.838;2022-12-07T03:35:27;4.77;;;3.10;;
29370;SDS011;16357;52.188;7.838;2022-12-07T03:40:37;5.95;;;3.67;;
29370;SDS011;16357;52.188;7.838;2022-12-07T03:43:10;6.72;;;4.00;;
29370;SDS011;16357;52.188;7.838;2022-12-07T03:45:38;8.30;;;4.05;;
29370;SDS011;16357;52.188;7.838;2022-12-07T03:51:00;7.55;;;3.58;;
29370;SDS011;16357;52.188;7.838;2022-12-07T03:53:42;4.57;;;3.15;;
29370;SDS011;16357;52.188;7.838;2022-12-07T03:56:14;6.55;;;3.20;;
29370;SDS011;16357;52.188;7.838;2022-12-07T03:58:41;5.60;;;3.42;;
29370;SDS011;16357;52.188;7.838;2022-12-07T04:01:08;8.50;;;3.65;;
29370;SDS011;16357;52.188;7.838;2022-12-07T04:03:35;6.40;;;3.30;;
29370;SDS011;16357;52.188;7.838;2022-12-07T04:06:02;6.88;;;3.38;;
29370;SDS011;16357;52.188;7.838;2022-12-07T04:08:29;5.72;;;3.50;;
29370;SDS011;16357;52.188;7.838;2022-12-07T04:10:55;5.57;;;3.17;;
29370;SDS011;16357;52.188;7.838;2022-12-07T04:13:21;5.68;;;3.25;;
29370;SDS011;16357;52.188;7.838;2022-12-07T04:15:48;5.07;;;3.03;;
29370;SDS011;16357;52.188;7.838;2022-12-07T04:18:14;6.95;;;3.20;;
29370;SDS011;16357;52.188;7.838;2022-12-07T04:20:41;8.18;;;3.58;;
29370;SDS011;16357;52.188;7.838;2022-12-07T04:23:07;4.68;;;3.08;;
29370;SDS011;16357;52.188;7.838;2022-12-07T04:25:33;5.72;;;3.30;;
29370;SDS011;16357;52.188;7.838;2022-12-07T04:28:00;5.35;;;2.83;;
29370;SDS011;16357;52.188;7.838;2022-12-07T04:30:26;9.95;;;3.17;;
29370;SDS011;16357;52.188;7.838;2022-12-07T04:32:52;6.03;;;3.00;;
29370;SDS011;16357;52.188;7.838;2022-12-07T04:35:19;5.72;;;2.72;;
29370;SDS011;16357;52.188;7.838;2022-12-07T04:37:45;8.00;;;2.85;;
29370;SDS011;16357;52.188;7.838;2022-12-07T04:40:11;8.10;;;3.40;;
29370;SDS011;16357;52.188;7.838;2022-12-07T04:42:40;5.22;;;2.90;;
29370;SDS011;16357;52.188;7.838;2022-12-07T04:45:06;7.30;;;2.67;;
29370;SDS011;16357;52.188;7.838;2022-12-07T04:47:34;6.68;;;3.47;;
29370;SDS011;16357;52.188;7.838;2022-12-07T04:50:00;4.13;;;2.72;;
29370;SDS011;16357;52.188;7.838;2022-12-07T04:52:27;7.50;;;2.90;;
29370;SDS011;16357;52.188;7.838;2022-12-07T04:54:53;6.90;;;3.10;;
29370;SDS011;16357;52.188;7.838;2022-12-07T04:57:20;5.65;;;3.05;;
29370;SDS011;16357;52.188;7.838;2022-12-07T04:59:46;3.58;;;2.53;;
29370;SDS011;16357;52.188;7.838;2022-12-07T05:02:12;4.00;;;2.78;;
29370;SDS011;16357;52.188;7.838;2022-12-07T05:04:39;6.15;;;2.88;;
29370;SDS011;16357;52.188;7.838;2022-12-07T05:07:05;7.25;;;2.88;;
29370;SDS011;16357;52.188;7.838;2022-12-07T05:09:31;6.15;;;2.90;;
29370;SDS011;16357;52.188;7.838;2022-12-07T05:11:58;6.38;;;2.80;;
29370;SDS011;16357;52.188;7.838;2022-12-07T05:14:24;6.13;;;2.78;;
29370;SDS011;16357;52.188;7.838;2022-12-07T05:16:51;9.00;;;3.05;;
29370;SDS011;16357;52.188;7.838;2022-12-07T05:19:19;8.00;;;2.72;;
29370;SDS011;16357;52.188;7.838;2022-12-07T05:21:46;7.57;;;3.00;;
29370;SDS011;16357;52.188;7.838;2022-12-07T05:24:14;4.60;;;2.63;;
29370;SDS011;16357;52.188;7.838;2022-12-07T05:26:42;8.73;;;3.10;;
29370;SDS011;16357;52.188;7.838;2022-12-07T05:29:11;5.05;;;2.30;;
29370;SDS011;16357;52.188;7.838;2022-12-07T05:31:39;4.15;;;2.60;;
29370;SDS011;16357;52.188;7.838;2022-12-07T05:34:06;5.85;;;2.70;;
29370;SDS011;16357;52.188;7.838;2022-12-07T05:36:32;6.95;;;3.20;;
29370;SDS011;16357;52.188;7.838;2022-12-07T05:38:59;5.75;;;2.83;;
29370;SDS011;16357;52.188;7.838;2022-12-07T05:41:25;5.07;;;2.90;;
29370;SDS011;16357;52.188;7.838;2022-12-07T05:44:10;4.60;;;2.67;;
29370;SDS011;16357;52.188;7.838;2022-12-07T05:46:36;4.60;;;2.67;;
29370;SDS011;16357;52.188;7.838;2022-12-07T05:49:03;9.35;;;3.17;;
29370;SDS011;16357;52.188;7.838;2022-12-07T05:51:29;4.85;;;2.40;;
29370;SDS011;16357;52.188;7.838;2022-12-07T05:53:56;5.32;;;2.60;;
29370;SDS011;16357;52.188;7.838;2022-12-07T05:56:22;4.18;;;2.50;;
29370;SDS011;16357;52.188;7.838;2022-12-07T05:58:49;5.40;;;2.47;;
29370;SDS011;16357;52.188;7.838;2022-12-07T06:01:34;7.15;;;3.20;;
29370;SDS011;16357;52.188;7.838;2022-12-07T06:04:00;4.90;;;2.80;;
29370;SDS011;16357;52.188;7.838;2022-12-07T06:06:26;8.35;;;3.03;;
29370;SDS011;16357;52.188;7.838;2022-12-07T06:08:53;6.47;;;3.10;;
29370;SDS011;16357;52.188;7.838;2022-12-07T06:11:19;8.13;;;2.90;;
29370;SDS011;16357;52.188;7.838;2022-12-07T06:14:04;5.38;;;2.65;;
29370;SDS011;16357;52.188;7.838;2022-12-07T06:16:31;4.95;;;2.20;;
29370;SDS011;16357;52.188;7.838;2022-12-07T06:18:57;9.77;;;2.75;;
29370;SDS011;16357;52.188;7.838;2022-12-07T06:21:24;5.18;;;2.45;;
29370;SDS011;16357;52.188;7.838;2022-12-07T06:23:52;6.40;;;3.05;;
29370;SDS011;16357;52.188;7.838;2022-12-07T06:26:18;10.30;;;2.70;;
29370;SDS011;16357;52.188;7.838;2022-12-07T06:28:45;5.82;;;2.70;;
29370;SDS011;16357;52.188;7.838;2022-12-07T06:31:11;7.13;;;3.20;;
29370;SDS011;16357;52.188;7.838;2022-12-07T06:33:39;4.88;;;2.42;;
29370;SDS011;16357;52.188;7.838;2022-12-07T06:36:06;8.18;;;2.42;;
29370;SDS011;16357;52.188;7.838;2022-12-07T06:38:32;4.75;;;2.38;;
29370;SDS011;16357;52.188;7.838;2022-12-07T06:40:59;5.03;;;2.33;;
29370;SDS011;16357;52.188;7.838;2022-12-07T06:43:25;5.15;;;2.50;;
29370;SDS011;16357;52.188;7.838;2022-12-07T06:45:52;6.07;;;2.90;;
29370;SDS011;16357;52.188;7.838;2022-12-07T06:48:18;8.10;;;2.92;;
29370;SDS011;16357;52.188;7.838;2022-12-07T06:50:45;4.35;;;2.03;;
29370;SDS011;16357;52.188;7.838;2022-12-07T06:53:19;4.70;;;2.20;;
29370;SDS011;16357;52.188;7.838;2022-12-07T06:55:46;8.02;;;3.00;;
29370;SDS011;16357;52.188;7.838;2022-12-07T06:58:12;8.32;;;2.42;;
29370;SDS011;16357;52.188;7.838;2022-12-07T07:00:38;7.03;;;2.63;;
29370;SDS011;16357;52.188;7.838;2022-12-07T07:03:05;11.10;;;2.85;;
29370;SDS011;16357;52.188;7.838;2022-12-07T07:05:31;8.27;;;2.47;;
29370;SDS011;16357;52.188;7.838;2022-12-07T07:07:57;5.90;;;2.50;;
29370;SDS011;16357;52.188;7.838;2022-12-07T07:10:45;7.90;;;2.55;;
29370;SDS011;16357;52.188;7.838;2022-12-07T07:13:12;8.82;;;2.30;;
29370;SDS011;16357;52.188;7.838;2022-12-07T07:15:39;6.22;;;2.20;;
29370;SDS011;16357;52.188;7.838;2022-12-07T07:18:05;6.38;;;2.88;;
29370;SDS011;16357;52.188;7.838;2022-12-07T07:20:33;8.60;;;2.80;;
29370;SDS011;16357;52.188;7.838;2022-12-07T07:23:00;5.63;;;2.10;;
29370;SDS011;16357;52.188;7.838;2022-12-07T07:25:26;7.03;;;2.10;;
29370;SDS011;16357;52.188;7.838;2022-12-07T07:27:53;5.43;;;2.00;;
29370;SDS011;16357;52.188;7.838;2022-12-07T07:30:19;6.03;;;2.05;;
29370;SDS011;16357;52.188;7.838;2022-12-07T07:32:45;5.88;;;1.83;;
29370;SDS011;16357;52.188;7.838;2022-12-07T07:35:12;6.82;;;2.15;;
29370;SDS011;16357;52.188;7.838;2022-12-07T07:37:40;6.43;;;2.50;;
29370;SDS011;16357;52.188;7.838;2022-12-07T07:40:07;4.55;;;1.90;;
29370;SDS011;16357;52.188;7.838;2022-12-07T07:42:35;7.47;;;2.58;;
29370;SDS011;16357;52.188;7.838;2022-12-07T07:45:01;8.18;;;2.55;;
29370;SDS011;16357;52.188;7.838;2022-12-07T07:47:28;6.88;;;2.60;;
29370;SDS011;16357;52.188;7.838;2022-12-07T07:49:55;8.68;;;2.30;;
29370;SDS011;16357;52.188;7.838;2022-12-07T07:52:22;6.72;;;2.60;;
29370;SDS011;16357;52.188;7.838;2022-12-07T07:54:48;5.88;;;2.15;;
29370;SDS011;16357;52.188;7.838;2022-12-07T07:57:15;9.23;;;2.97;;
29370;SDS011;16357;52.188;7.838;2022-12-07T07:59:42;7.25;;;2.28;;
29370;SDS011;16357;52.188;7.838;2022-12-07T08:02:12;8.93;;;2.78;;
29370;SDS011;16357;52.188;7.838;2022-12-07T08:04:40;7.88;;;2.50;;
29370;SDS011;16357;52.188;7.838;2022-12-07T08:07:07;5.63;;;2.53;;
29370;SDS011;16357;52.188;7.838;2022-12-07T08:09:33;7.55;;;2.38;;
29370;SDS011;16357;52.188;7.838;2022-12-07T08:12:00;9.13;;;2.60;;
29370;SDS011;16357;52.188;7.838;2022-12-07T08:14:26;6.68;;;2.65;;
29370;SDS011;16357;52.188;7.838;2022-12-07T08:16:54;5.93;;;2.38;;
29370;SDS011;16357;52.188;7.838;2022-12-07T08:19:21;5.13;;;2.53;;
29370;SDS011;16357;52.188;7.838;2022-12-07T08:21:47;6.63;;;2.50;;
29370;SDS011;16357;52.188;7.838;2022-12-07T08:24:13;6.35;;;2.60;;
29370;SDS011;16357;52.188;7.838;2022-12-07T08:26:41;12.00;;;2.70;;
29370;SDS011;16357;52.188;7.838;2022-12-07T08:29:07;6.18;;;2.38;;
29370;SDS011;16357;52.188;7.838;2022-12-07T08:31:34;6.38;;;2.63;;
29370;SDS011;16357;52.188;7.838;2022-12-07T08:34:01;6.53;;;2.67;;
29370;SDS011;16357;52.188;7.838;2022-12-07T08:36:27;6.00;;;2.53;;
29370;SDS011;16357;52.188;7.838;2022-12-07T08:38:54;6.15;;;2.58;;
29370;SDS011;16357;52.188;7.838;2022-12-07T08:41:40;6.05;;;2.53;;
29370;SDS011;16357;52.188;7.838;2022-12-07T08:44:06;6.38;;;2.47;;
29370;SDS011;16357;52.188;7.838;2022-12-07T08:46:44;8.35;;;2.92;;
29370;SDS011;16357;52.188;7.838;2022-12-07T08:49:22;6.28;;;2.05;;
29370;SDS011;16357;52.188;7.838;2022-12-07T08:51:54;9.20;;;2.08;;
29370;SDS011;16357;52.188;7.838;2022-12-07T08:54:21;8.48;;;2.22;;
29370;SDS011;16357;52.188;7.838;2022-12-07T08:56:48;9.80;;;2.35;;
29370;SDS011;16357;52.188;7.838;2022-12-07T09:01:50;6.30;;;1.88;;
29370;SDS011;16357;52.188;7.838;2022-12-07T09:04:16;5.78;;;2.15;;
29370;SDS011;16357;52.188;7.838;2022-12-07T09:06:43;6.55;;;1.98;;
29370;SDS011;16357;52.188;7.838;2022-12-07T09:09:09;13.38;;;2.33;;
29370;SDS011;16357;52.188;7.838;2022-12-07T09:11:37;9.35;;;2.63;;
29370;SDS011;16357;52.188;7.838;2022-12-07T09:14:05;6.93;;;2.20;;
29370;SDS011;16357;52.188;7.838;2022-12-07T09:16:32;3.58;;;1.42;;
29370;SDS011;16357;52.188;7.838;2022-12-07T09:18:58;6.38;;;2.15;;
29370;SDS011;16357;52.188;7.838;2022-12-07T09:21:24;5.97;;;1.80;;
29370;SDS011;16357;52.188;7.838;2022-12-07T09:23:51;9.68;;;2.72;;
29370;SDS011;16357;52.188;7.838;2022-12-07T09:26:17;10.70;;;2.60;;
29370;SDS011;16357;52.188;7.838;2022-12-07T09:28:43;7.18;;;1.92;;
29370;SDS011;16357;52.188;7.838;2022-12-07T09:31:10;8.98;;;1.77;;
29370;SDS011;16357;52.188;7.838;2022-12-07T09:33:53;8.63;;;1.90;;
29370;SDS011;16357;52.188;7.838;2022-12-07T09:36:21;4.47;;;1.83;;
29370;SDS011;16357;52.188;7.838;2022-12-07T09:38:47;6.88;;;1.88;;
29370;SDS011;16357;52.188;7.838;2022-12-07T09:41:13;7.68;;;1.92;;
29370;SDS011;16357;52.188;7.838;2022-12-07T09:43:41;4.30;;;2.15;;
29370;SDS011;16357;52.188;7.838;2022-12-07T09:46:09;5.55;;;2.05;;
29370;SDS011;16357;52.188;7.838;2022-12-07T09:48:41;8.23;;;2.13;;
29370;SDS011;16357;52.188;7.838;2022-12-07T09:51:13;8.13;;;2.10;;
29370;SDS011;16357;52.188;7.838;2022-12-07T09:53:49;8.23;;;2.42;;
29370;SDS011;16357;52.188;7.838;2022-12-07T09:56:17;5.57;;;1.92;;
29370;SDS011;16357;52.188;7.838;2022-12-07T09:58:45;6.05;;;1.95;;
29370;SDS011;16357;52.188;7.838;2022-12-07T10:03:51;6.68;;;2.08;;
29370;SDS011;16357;52.188;7.838;2022-12-07T10:06:20;7.75;;;1.42;;
29370;SDS011;16357;52.188;7.838;2022-12-07T10:08:46;4.72;;;1.77;;
29370;SDS011;16357;52.188;7.838;2022-12-07T10:11:13;6.80;;;1.88;;
29370;SDS011;16357;52.188;7.838;2022-12-07T10:16:26;6.88;;;1.80;;
29370;SDS011;16357;52.188;7.838;2022-12-07T10:18:56;6.00;;;1.70;;
29370;SDS011;16357;52.188;7.838;2022-12-07T10:21:23;9.32;;;2.28;;
29370;SDS011;16357;52.188;7.838;2022-12-07T10:24:04;8.13;;;2.17;;
29370;SDS011;16357;52.188;7.838;2022-12-07T10:26:32;6.18;;;1.60;;
29370;SDS011;16357;52.188;7.838;2022-12-07T10:31:56;9.60;;;1.60;;
29370;SDS011;16357;52.188;7.838;2022-12-07T10:39:53;6.15;;;1.35;;
29370;SDS011;16357;52.188;7.838;2022-12-07T10:42:22;7.32;;;2.17;;
29370;SDS011;16357;52.188;7.838;2022-12-07T10:45:13;8.13;;;2.05;;
29370;SDS011;16357;52.188;7.838;2022-12-07T10:50:41;8.73;;;2.03;;
29370;SDS011;16357;52.188;7.838;2022-12-07T10:53:28;5.40;;;1.70;;
29370;SDS011;16357;52.188;7.838;2022-12-07T10:59:07;6.38;;;1.95;;
29370;SDS011;16357;52.188;7.838;2022-12-07T11:01:45;4.90;;;1.42;;
29370;SDS011;16357;52.188;7.838;2022-12-07T11:07:07;5.75;;;1.77;;
29370;SDS011;16357;52.188;7.838;2022-12-07T11:15:14;8.30;;;2.17;;
29370;SDS011;16357;52.188;7.838;2022-12-07T11:20:43;5.97;;;1.90;;
29370;SDS011;16357;52.188;7.838;2022-12-07T11:23:22;7.55;;;2.20;;
29370;SDS011;16357;52.188;7.838;2022-12-07T11:26:07;4.82;;;1.67;;
29370;SDS011;16357;52.188;7.838;2022-12-07T11:28:51;6.22;;;1.88;;
29370;SDS011;16357;52.188;7.838;2022-12-07T11:31:40;6.10;;;2.20;;
29370;SDS011;16357;52.188;7.838;2022-12-07T11:34:24;3.50;;;1.65;;
29370;SDS011;16357;52.188;7.838;2022-12-07T11:37:00;6.50;;;1.70;;
29370;SDS011;16357;52.188;7.838;2022-12-07T11:39:30;6.22;;;1.48;;
29370;SDS011;16357;52.188;7.838;2022-12-07T11:42:04;5.85;;;1.45;;
29370;SDS011;16357;52.188;7.838;2022-12-07T11:47:09;4.38;;;1.70;;
29370;SDS011;16357;52.188;7.838;2022-12-07T11:49:44;6.22;;;1.95;;
29370;SDS011;16357;52.188;7.838;2022-12-07T11:52:25;5.57;;;1.90;;
29370;SDS011;16357;52.188;7.838;2022-12-07T11:54:58;3.97;;;1.98;;
29370;SDS011;16357;52.188;7.838;2022-12-07T11:57:28;9.98;;;1.77;;
29370;SDS011;16357;52.188;7.838;2022-12-07T12:00:04;5.32;;;1.50;;
29370;SDS011;16357;52.188;7.838;2022-12-07T12:02:42;6.15;;;1.65;;
29370;SDS011;16357;52.188;7.838;2022-12-07T12:05:19;3.55;;;1.40;;
29370;SDS011;16357;52.188;7.838;2022-12-07T12:07:53;5.05;;;1.45;;
29370;SDS011;16357;52.188;7.838;2022-12-07T12:19:30;6.70;;;1.48;;
29370;SDS011;16357;52.188;7.838;2022-12-07T12:22:12;5.72;;;1.20;;
29370;SDS011;16357;52.188;7.838;2022-12-07T12:24:43;5.05;;;1.40;;
29370;SDS011;16357;52.188;7.838;2022-12-07T12:27:33;6.15;;;1.52;;
29370;SDS011;16357;52.188;7.838;2022-12-07T12:30:04;9.90;;;1.60;;
29370;SDS011;16357;52.188;7.838;2022-12-07T12:32:38;8.48;;;1.85;;
29370;SDS011;16357;52.188;7.838;2022-12-07T12:40:53;6.45;;;1.67;;
29370;SDS011;16357;52.188;7.838;2022-12-07T12:51:43;5.20;;;1.83;;
29370;SDS011;16357;52.188;7.838;2022-12-07T12:54:11;4.70;;;1.42;;
29370;SDS011;16357;52.188;7.838;2022-12-07T12:56:50;5.47;;;1.90;;
29370;SDS011;16357;52.188;7.838;2022-12-07T12:59:23;5.47;;;1.48;;
29370;SDS011;16357;52.188;7.838;2022-12-07T13:01:51;9.45;;;1.52;;
29370;SDS011;16357;52.188;7.838;2022-12-07T13:06:56;5.88;;;1.90;;
29370;SDS011;16357;52.188;7.838;2022-12-07T13:09:24;4.88;;;1.25;;
29370;SDS011;16357;52.188;7.838;2022-12-07T13:11:55;9.45;;;2.17;;
29370;SDS011;16357;52.188;7.838;2022-12-07T13:14:35;7.43;;;1.88;;
29370;SDS011;16357;52.188;7.838;2022-12-07T13:17:11;5.80;;;2.10;;
29370;SDS011;16357;52.188;7.838;2022-12-07T13:20:03;6.82;;;1.73;;
29370;SDS011;16357;52.188;7.838;2022-12-07T13:22:43;6.25;;;1.67;;
29370;SDS011;16357;52.188;7.838;2022-12-07T13:27:59;7.93;;;2.00;;
29370;SDS011;16357;52.188;7.838;2022-12-07T13:30:33;7.13;;;1.70;;
29370;SDS011;16357;52.188;7.838;2022-12-07T13:33:11;8.20;;;2.05;;
29370;SDS011;16357;52.188;7.838;2022-12-07T13:35:38;7.63;;;2.80;;
29370;SDS011;16357;52.188;7.838;2022-12-07T13:38:13;4.45;;;1.88;;
29370;SDS011;16357;52.188;7.838;2022-12-07T13:46:23;12.52;;;2.85;;
29370;SDS011;16357;52.188;7.838;2022-12-07T13:49:01;10.88;;;2.30;;
29370;SDS011;16357;52.188;7.838;2022-12-07T13:51:28;5.80;;;2.38;;
29370;SDS011;16357;52.188;7.838;2022-12-07T13:54:01;4.90;;;2.00;;
29370;SDS011;16357;52.188;7.838;2022-12-07T13:56:41;10.43;;;2.00;;
29370;SDS011;16357;52.188;7.838;2022-12-07T13:59:16;10.13;;;2.30;;
29370;SDS011;16357;52.188;7.838;2022-12-07T14:01:47;7.43;;;1.90;;
29370;SDS011;16357;52.188;7.838;2022-12-07T14:04:19;6.47;;;2.10;;
29370;SDS011;16357;52.188;7.838;2022-12-07T14:10:05;9.40;;;2.33;;
29370;SDS011;16357;52.188;7.838;2022-12-07T14:12:34;8.02;;;2.40;;
29370;SDS011;16357;52.188;7.838;2022-12-07T14:15:02;6.85;;;2.20;;
29370;SDS011;16357;52.188;7.838;2022-12-07T14:17:30;7.68;;;2.08;;
29370;SDS011;16357;52.188;7.838;2022-12-07T14:20:00;6.55;;;1.73;;
29370;SDS011;16357;52.188;7.838;2022-12-07T14:22:29;7.70;;;1.75;;
29370;SDS011;16357;52.188;7.838;2022-12-07T14:27:53;9.18;;;2.00;;
29370;SDS011;16357;52.188;7.838;2022-12-07T14:30:28;5.97;;;1.85;;
29370;SDS011;16357;52.188;7.838;2022-12-07T14:33:00;5.95;;;1.45;;
29370;SDS011;16357;52.188;7.838;2022-12-07T14:35:28;5.82;;;1.77;;
29370;SDS011;16357;52.188;7.838;2022-12-07T14:37:56;8.13;;;1.85;;
29370;SDS011;16357;52.188;7.838;2022-12-07T14:40:24;6.13;;;2.00;;
29370;SDS011;16357;52.188;7.838;2022-12-07T14:42:55;5.03;;;1.65;;
29370;SDS011;16357;52.188;7.838;2022-12-07T14:45:26;6.88;;;2.90;;
29370;SDS011;16357;52.188;7.838;2022-12-07T14:47:52;6.93;;;1.60;;
29370;SDS011;16357;52.188;7.838;2022-12-07T14:53:29;7.10;;;2.03;;
29370;SDS011;16357;52.188;7.838;2022-12-07T14:56:01;6.70;;;1.70;;
29370;SDS011;16357;52.188;7.838;2022-12-07T14:58:31;7.22;;;1.50;;
29370;SDS011;16357;52.188;7.838;2022-12-07T15:00:58;6.95;;;1.90;;
29370;SDS011;16357;52.188;7.838;2022-12-07T15:03:25;6.18;;;1.55;;
29370;SDS011;16357;52.188;7.838;2022-12-07T15:05:52;5.03;;;1.40;;
29370;SDS011;16357;52.188;7.838;2022-12-07T15:08:18;6.20;;;1.83;;
29370;SDS011;16357;52.188;7.838;2022-12-07T15:10:45;6.45;;;1.92;;
29370;SDS011;16357;52.188;7.838;2022-12-07T15:13:11;5.07;;;1.52;;
29370;SDS011;16357;52.188;7.838;2022-12-07T15:15:56;9.18;;;1.90;;
29370;SDS011;16357;52.188;7.838;2022-12-07T15:18:23;7.05;;;1.98;;
29370;SDS011;16357;52.188;7.838;2022-12-07T15:20:50;7.57;;;1.77;;
29370;SDS011;16357;52.188;7.838;2022-12-07T15:23:16;6.95;;;1.75;;
29370;SDS011;16357;52.188;7.838;2022-12-07T15:25:43;6.47;;;1.83;;
29370;SDS011;16357;52.188;7.838;2022-12-07T15:28:12;8.00;;;2.35;;
29370;SDS011;16357;52.188;7.838;2022-12-07T15:30:39;9.32;;;2.50;;
29370;SDS011;16357;52.188;7.838;2022-12-07T15:33:10;6.93;;;1.90;;
29370;SDS011;16357;52.188;7.838;2022-12-07T15:35:38;5.07;;;1.67;;
29370;SDS011;16357;52.188;7.838;2022-12-07T15:38:05;6.43;;;1.70;;
29370;SDS011;16357;52.188;7.838;2022-12-07T15:40:32;4.68;;;2.22;;
29370;SDS011;16357;52.188;7.838;2022-12-07T15:42:59;6.07;;;1.70;;
29370;SDS011;16357;52.188;7.838;2022-12-07T15:45:25;7.03;;;1.80;;
29370;SDS011;16357;52.188;7.838;2022-12-07T15:47:51;8.25;;;2.30;;
29370;SDS011;16357;52.188;7.838;2022-12-07T15:50:44;8.13;;;2.05;;
29370;SDS011;16357;52.188;7.838;2022-12-07T15:53:10;11.18;;;1.80;;
29370;SDS011;16357;52.188;7.838;2022-12-07T15:55:38;6.50;;;2.20;;
29370;SDS011;16357;52.188;7.838;2022-12-07T15:58:05;6.28;;;2.00;;
29370;SDS011;16357;52.188;7.838;2022-12-07T16:00:32;7.28;;;2.15;;
29370;SDS011;16357;52.188;7.838;2022-12-07T16:02:58;7.55;;;3.00;;
29370;SDS011;16357;52.188;7.838;2022-12-07T16:05:25;7.35;;;2.72;;
29370;SDS011;16357;52.188;7.838;2022-12-07T16:07:51;8.02;;;2.58;;
29370;SDS011;16357;52.188;7.838;2022-12-07T16:10:17;10.27;;;2.83;;
29370;SDS011;16357;52.188;7.838;2022-12-07T16:12:44;5.80;;;1.65;;
29370;SDS011;16357;52.188;7.838;2022-12-07T16:15:10;5.13;;;2.00;;
29370;SDS011;16357;52.188;7.838;2022-12-07T16:17:37;8.98;;;2.45;;
29370;SDS011;16357;52.188;7.838;2022-12-07T16:20:03;3.65;;;1.88;;
29370;SDS011;16357;52.188;7.838;2022-12-07T16:22:30;4.30;;;1.60;;
29370;SDS011;16357;52.188;7.838;2022-12-07T16:24:57;7.50;;;2.40;;
29370;SDS011;16357;52.188;7.838;2022-12-07T16:27:23;6.88;;;1.77;;
29370;SDS011;16357;52.188;7.838;2022-12-07T16:29:50;9.15;;;2.42;;
29370;SDS011;16357;52.188;7.838;2022-12-07T16:32:16;5.40;;;2.03;;
29370;SDS011;16357;52.188;7.838;2022-12-07T16:34:42;7.78;;;1.85;;
29370;SDS011;16357;52.188;7.838;2022-12-07T16:37:09;7.00;;;2.30;;
29370;SDS011;16357;52.188;7.838;2022-12-07T16:39:35;6.45;;;2.03;;
29370;SDS011;16357;52.188;7.838;2022-12-07T16:42:02;6.75;;;2.47;;
29370;SDS011;16357;52.188;7.838;2022-12-07T16:44:28;6.38;;;2.20;;
29370;SDS011;16357;52.188;7.838;2022-12-07T16:46:56;7.07;;;2.42;;
29370;SDS011;16357;52.188;7.838;2022-12-07T16:49:23;11.85;;;2.10;;